• Join FlightAware (Why Join?)
  • Login
  • US Flag 
Trick or treat! (Boo!!) 
01:46PM EDT


 

Airport Tracker/Info


-or-


 

Live Flight TrackerFlight Track Log ✈ GJS3649 ✈ 16-Apr-2013 ✈ KORD - KPWM

Flight Track Log - Related Links

Times and Time Zones

All times are in EDT time to prevent confusion due to time zone crossing. See the GJS3649 flight status page for this flight to view local times or setup timezone preferences in your user account.

Time Position Orientation Groundspeed Altitude Reporting Facility
EDT Latitude Longitude Course Direction KTS MPH feet Rate Location/Type
09:03AM 41.9667 -87.9167 90° East 42 48 700  Level Chicago TRACON
09:04AM 42.2517 -87.0949 66° East  Level FlightAware Approximate
09:04AM 42.0000 -87.9500 323° Northwest 173 199 2,300  Level Chicago TRACON
09:05AM 42.2692 -86.9483 86° East  Level FlightAware Approximate
09:05AM 42.0500 -87.9333 14° North 235 270 4,400  Level Chicago TRACON
09:06AM 42.1000 -87.8500 51° Northeast 306 352 7,300 2,640 Climbing Chicago TRACON
09:07AM 42.2838 -86.6466 80° East  Level FlightAware Approximate
09:07AM 42.1281 -87.7531 69° East 316 364 9,900  Level Chicago Center
09:08AM 42.3000 -86.4972 90° East  Level FlightAware Approximate
09:08AM 42.1553 -87.6322 73° East 332 382 12,500  Level Chicago Center
09:09AM 42.3000 -86.3460 90° East  Level FlightAware Approximate
09:09AM 42.1833 -87.5003 74° East 359 413 15,100  Level Chicago Center
09:10AM 42.2133 -87.3603 74° East 383 441 17,800 1,980 Climbing Chicago Center
09:11AM 42.2453 -87.2181 73° East 395 455 19,200 1,500 Climbing Chicago Center
09:12AM 42.2828 -87.0219 75° East 446 513 21,000 1,800 Climbing Chicago Center
09:13AM 42.2872 -86.8469 88° East 460 529 23,000 1,800 Climbing Chicago Center
09:14AM 42.2942 -86.6675 87° East 468 539 24,700 1,380 Climbing Chicago Center
09:15AM 42.3011 -86.4844 87° East 486 559 25,900 1,200 Climbing Chicago Center
09:16AM 42.3075 -86.2967 87° East 500 575 27,200 1,200 Climbing Chicago Center
09:18AM 42.3133 -86.1053 88° East 511 588 28,400 1,140 Climbing Chicago Center
09:19AM 42.3133 -85.9117 90° East 519 597 29,600 1,020 Climbing Chicago Center
09:20AM 42.3094 -85.6767 91° East 525 604 30,600 660 Climbing Chicago Center
09:21AM 42.3069 -85.4739 91° East 539 620 31,000 180 Climbing Chicago Center
09:22AM 42.3036 -85.2686 91° East 548 631 31,000  Level Chicago Center
09:23AM 42.3036 -85.0731 90° East 538 619 31,000  Level Cleveland Center
09:24AM 42.3011 -84.8678 91° East 538 619 31,000  Level Cleveland Center
09:25AM 42.2958 -84.6681 92° East 538 619 31,000  Level Cleveland Center
09:26AM 42.3003 -84.4828 88° East 538 619 31,000  Level Cleveland Center
09:27AM 42.3172 -84.2817 83° East 538 619 31,000  Level Cleveland Center
09:28AM 42.3361 -84.0778 83° East 538 619 31,000  Level Cleveland Center
09:29AM 42.3525 -83.8764 84° East 538 619 31,000  Level Cleveland Center
09:30AM 42.3708 -83.6719 83° East 538 619 31,000  Level Cleveland Center
09:31AM 42.3844 -83.4675 85° East 538 619 31,000  Level Cleveland Center
09:32AM 42.4019 -83.2628 83° East 538 619 31,000 -300 Level Cleveland Center
09:33AM 42.4194 -83.0386 84° East 538 619 30,400 -840 Descending Cleveland Center
09:34AM 42.4339 -82.8394 84° East 538 619 29,400 -720 Descending Cleveland Center
09:35AM 42.4481 -82.6431 84° East 532 612 29,000 -240 Descending Cleveland Center
09:36AM 42.4617 -82.4492 84° East 521 600 29,000  Level Cleveland Center
09:37AM 42.4750 -82.2608 84° East 516 594 29,000  Level Cleveland Center
09:38AM 42.4883 -82.0614 85° East 516 594 29,000  Level Cleveland Center
09:39AM 42.5011 -81.8644 85° East 516 594 29,000  Level Cleveland Center
09:40AM 42.5175 -81.6678 83° East 516 594 29,000  Level Cleveland Center
09:41AM 42.5275 -81.4764 86° East 516 594 29,000  Level Cleveland Center
09:42AM 42.5414 -81.2878 84° East 511 588 29,000  Level Cleveland Center
09:43AM 42.5506 -81.1158 86° East 506 582 29,000  Level Cleveland Center
09:44AM 42.5619 -80.9272 85° East 506 582 29,000  Level Cleveland Center
09:45AM 42.5706 -80.7297 87° East 505 581 29,000  Level Cleveland Center
09:46AM 42.5831 -80.5381 85° East 505 581 29,000  Level Cleveland Center
09:47AM 42.5933 -80.3519 86° East 510 587 29,000  Level Cleveland Center
09:48AM 42.6031 -80.1403 86° East 510 587 29,000  Level Cleveland Center
09:49AM 42.6169 -79.9708 84° East 505 581 29,000  Level Cleveland Center
09:50AM 42.6242 -79.7789 87° East 500 575 29,000  Level Cleveland Center
09:51AM 42.6331 -79.5897 86° East 500 575 29,000  Level Cleveland Center
09:52AM 42.6397 -79.4006 87° East 500 575 29,000  Level Cleveland Center
09:53AM 42.6481 -79.2056 87° East 500 575 29,000  Level Cleveland Center
09:54AM 42.6558 -79.0136 87° East 500 575 29,000  Level Cleveland Center
09:55AM 42.6636 -78.8242 87° East 500 575 29,000  Level Cleveland Center
09:56AM 42.6689 -78.6319 88° East 500 575 29,000  Level Cleveland Center
09:57AM 42.6758 -78.4397 87° East 500 575 29,000  Level Cleveland Center
09:58AM 42.6844 -78.2444 87° East 500 575 29,000  Level Cleveland Center
09:59AM 42.6908 -78.0522 87° East 505 581 29,000  Level Cleveland Center
10:01AM 42.7058 -77.6147 87° East 500 575 29,000  Level Boston Center
10:02AM 42.7081 -77.4225 89° East 505 581 29,000  Level Boston Center
10:03AM 42.7122 -77.2306 88° East 505 581 29,000  Level Boston Center
10:04AM 42.7178 -77.0444 88° East 499 574 29,000  Level Boston Center
10:05AM 42.7458 -76.8597 78° East 493 567 29,000  Level Boston Center
10:06AM 42.7717 -76.6778 79° East 499 574 29,000  Level Boston Center
10:07AM 42.7939 -76.5292 78° East 499 574 29,000  Level Boston Center
10:08AM 42.8258 -76.3244 78° East 504 580 29,000  Level Boston Center
10:09AM 42.8528 -76.1422 79° East 504 580 29,000  Level Boston Center
10:10AM 42.8775 -75.9536 80° East 504 580 29,000  Level Boston Center
10:11AM 42.9061 -75.7711 78° East 504 580 29,000  Level Boston Center
10:12AM 42.9322 -75.5853 79° East 504 580 29,000  Level Boston Center
10:13AM 42.9586 -75.3739 80° East 488 562 29,000  Level Boston Center
10:14AM 42.9839 -75.1961 79° East 482 555 29,000  Level Boston Center
10:15AM 43.0089 -75.0183 79° East 476 548 29,000  Level Boston Center
10:16AM 43.0317 -74.8403 80° East 476 548 29,000  Level Boston Center
10:17AM 43.0611 -74.6169 80° East 483 556 29,000  Level Boston Center
10:18AM 43.0853 -74.4300 80° East 488 562 29,000  Level Boston Center
10:19AM 43.1072 -74.2458 81° East 488 562 29,000  Level Boston Center
10:20AM 43.1331 -74.0561 79° East 494 568 29,000  Level Boston Center
10:21AM 43.1517 -73.9000 81° East 506 582 29,000  Level Boston Center
10:22AM 43.1814 -73.6758 80° East 506 582 29,000  Level Boston Center
10:23AM 43.2064 -73.4825 80° East 501 577 29,000  Level Boston Center
10:24AM 43.2353 -73.2664 80° East 512 589 29,000  Level Boston Center
10:25AM 43.2572 -73.0758 81° East 512 589 29,000 -240 Level Boston Center
10:26AM 43.2789 -72.8850 81° East 512 589 28,600 -720 Descending Boston Center
10:27AM 43.3006 -72.6939 81° East 506 582 27,600 -1,020 Descending Boston Center
10:28AM 43.3217 -72.5086 81° East 496 571 26,600 -1,560 Descending Boston Center
10:29AM 43.3403 -72.3289 82° East 486 559 24,500 -2,160 Descending Boston Center
10:30AM 43.3586 -72.1544 82° East 475 547 22,300 -2,340 Descending Boston Center
10:31AM 43.3789 -71.9831 81° East 464 534 20,000 -2,280 Descending Boston Center
10:32AM 43.3950 -71.8231 82° East 435 501 17,900 -1,980 Descending Boston Center
10:33AM 43.4086 -71.6769 83° East 423 487 16,100 -2,100 Descending Boston Center
10:34AM 43.4261 -71.5081 82° East 413 475 13,700 -2,220 Descending Boston Center
10:35AM 43.4417 -71.3736 81° East 407 468 11,700 -1,440 Descending Boston Center
10:36AM 43.4547 -71.2275 83° East 393 452 10,900 -360 Descending Boston Center
10:37AM 43.4842 -71.0694 76° East 387 445 11,000  Climbing Boston Center
10:38AM 43.5161 -70.9483 70° East 382 440 10,900 -780 Descending Boston Center
10:39AM 43.5372 -70.8133 78° East 340 391 9,500 -1,500 Descending Boston Center
10:40AM 43.5314 -70.7075 94° East 301 346 8,000 -1,860 Descending Boston Center
10:41AM 43.5272 -70.5789 93° East 301 346 5,900 -1,380 Descending Boston Center
10:42AM 43.5214 -70.4817 95° East 295 339 5,000 -780 Descending Boston Center
10:43AM 43.5128 -70.3417 95° East 284 327 4,200 -960 Descending Boston Center
10:44AM 43.5114 -70.2700 92° East 274 315 3,200 -1,140 Descending Boston Center
10:45AM 43.5028 -70.1444 95° East 261 300 2,000 -660 Descending Boston Center
10:46AM 43.5450 -70.0711 52° Northeast 219 252 2,000  Level Boston Center
10:47AM 43.6094 -70.0600 North 199 229 2,000 -120 Level Boston Center
10:49AM 43.6317 -70.1308 293° West 145 167 1,800 -180 Descending Boston Center
10:50AM 43.6369 -70.1908 277° West 126 145 1,700 -420 Descending Boston Center
10:51AM 43.6403 -70.2425 275° West 126 145 1,000 -780 Descending Boston Center
10:53AM 43.6333 -70.3000 318° Northwest  Level FlightAware Approximate
11:00AM 43.6456 -70.3086 318° Northwest  Level Estimated